Time;durP1;ratioP1;P1;durP2;ratioP2;P2;SDS_P1;SDS_P2;PMS_P1;PMS_P2;Temp;Humidity;BMP_temperature;BMP_pressure;BME280_temperature;BME280_humidity;BME280_pressure;Samples;Min_cycle;Max_cycle;Signal;HPM_P1;HPM_P2
2024/01/13 00:00:31;;;;;;;8.00;1.60;;;2.00;99.90;;;;;;5095941;28;20791;-82
2024/01/13 00:02:58;;;;;;;12.97;2.20;;;1.90;99.90;;;;;;5103675;28;20441;-82
2024/01/13 00:05:25;;;;;;;19.40;2.60;;;1.90;99.90;;;;;;5096855;28;20244;-81
2024/01/13 00:07:53;;;;;;;21.70;3.40;;;1.90;99.90;;;;;;5096580;28;20570;-81
2024/01/13 00:10:20;;;;;;;30.63;3.70;;;1.90;99.90;;;;;;5131871;27;20295;-81
2024/01/13 00:12:47;;;;;;;11.43;2.30;;;1.90;99.90;;;;;;5101368;28;20772;-81
2024/01/13 00:15:13;;;;;;;13.40;2.33;;;2.00;99.90;;;;;;5097689;28;20226;-82
2024/01/13 00:17:40;;;;;;;4.87;1.63;;;2.00;99.90;;;;;;5108691;28;20253;-82
2024/01/13 00:20:09;;;;;;;5.17;1.83;;;2.00;99.90;;;;;;5115131;27;20291;-80
2024/01/13 00:22:35;;;;;;;7.30;1.87;;;2.00;99.90;;;;;;5113128;28;20226;-82
2024/01/13 00:25:04;;;;;;;4.90;1.83;;;2.00;99.90;;;;;;5113579;28;20264;-81
2024/01/13 00:27:31;;;;;;;10.73;2.40;;;2.00;99.90;;;;;;5130572;27;20929;-81
2024/01/13 00:29:58;;;;;;;21.27;2.33;;;2.00;99.90;;;;;;5113973;28;20304;-81
2024/01/13 00:32:24;;;;;;;5.07;1.70;;;2.00;99.90;;;;;;5108134;27;20519;-81
2024/01/13 00:34:51;;;;;;;10.03;2.13;;;2.00;99.90;;;;;;5113777;28;20848;-81
2024/01/13 00:37:18;;;;;;;7.07;2.00;;;2.00;99.90;;;;;;5114767;28;20245;-81
2024/01/13 00:39:45;;;;;;;5.53;1.70;;;2.00;99.90;;;;;;5106441;28;20249;-81
2024/01/13 00:42:13;;;;;;;5.47;1.80;;;2.00;99.90;;;;;;5096828;27;20226;-81
2024/01/13 00:44:39;;;;;;;8.00;2.50;;;2.00;99.90;;;;;;5093240;28;20526;-81
2024/01/13 00:47:06;;;;;;;4.00;1.53;;;2.00;99.90;;;;;;5095876;27;20228;-81
2024/01/13 00:49:33;;;;;;;4.40;1.80;;;2.00;99.90;;;;;;5093714;28;20235;-81
2024/01/13 00:52:00;;;;;;;4.07;2.13;;;2.00;99.90;;;;;;5095059;27;20231;-81
2024/01/13 00:54:27;;;;;;;4.77;1.90;;;2.00;99.90;;;;;;5094821;27;20220;-81
2024/01/13 00:56:54;;;;;;;4.13;1.50;;;2.00;99.90;;;;;;5128275;27;20219;-81
2024/01/13 00:59:22;;;;;;;6.77;1.93;;;2.00;99.90;;;;;;5127466;27;20241;-81
2024/01/13 01:01:49;;;;;;;3.23;1.50;;;2.00;99.90;;;;;;5111156;28;20241;-81
2024/01/13 01:04:16;;;;;;;5.67;1.70;;;2.00;99.90;;;;;;5094015;27;20773;-81
2024/01/13 01:06:44;;;;;;;4.53;1.87;;;2.00;99.90;;;;;;5094106;27;20215;-82
2024/01/13 01:09:11;;;;;;;4.50;1.77;;;2.00;99.90;;;;;;5091926;27;20234;-82
2024/01/13 01:11:38;;;;;;;2.50;1.60;;;2.00;99.90;;;;;;5127968;27;20228;-82
2024/01/13 01:14:05;;;;;;;6.70;2.00;;;2.00;99.90;;;;;;5091935;27;20235;-81
2024/01/13 01:16:34;;;;;;;5.93;1.80;;;2.00;99.90;;;;;;5092678;28;20227;-82
2024/01/13 01:19:01;;;;;;;4.33;1.90;;;2.00;99.90;;;;;;5094311;28;20227;-81
2024/01/13 01:21:28;;;;;;;9.83;2.30;;;2.00;99.90;;;;;;5126485;27;20231;-81
2024/01/13 01:23:55;;;;;;;8.93;1.90;;;2.00;99.90;;;;;;5093399;28;20288;-82
2024/01/13 01:26:22;;;;;;;3.77;1.80;;;2.00;99.90;;;;;;5097286;27;20223;-81
2024/01/13 01:28:49;;;;;;;3.70;1.80;;;2.00;99.90;;;;;;5098421;28;20245;-82
2024/01/13 01:31:16;;;;;;;3.80;1.73;;;2.00;99.90;;;;;;5097688;27;20261;-81
2024/01/13 01:33:45;;;;;;;2.90;1.70;;;2.00;99.90;;;;;;5098749;28;20299;-82
2024/01/13 01:36:12;;;;;;;5.50;2.00;;;2.00;99.90;;;;;;5096785;27;20264;-82
2024/01/13 01:38:39;;;;;;;6.40;1.70;;;2.00;99.90;;;;;;5096136;28;20228;-82
2024/01/13 01:41:07;;;;;;;5.20;2.00;;;2.00;99.90;;;;;;5097582;27;20581;-82
2024/01/13 01:43:34;;;;;;;11.73;2.50;;;2.00;99.90;;;;;;5098292;27;20222;-82
2024/01/13 01:46:04;;;;;;;9.23;2.53;;;2.00;99.90;;;;;;5095593;28;20245;-81
2024/01/13 01:48:35;;;;;;;4.63;1.80;;;2.00;99.90;;;;;;5094960;28;20225;-82
2024/01/13 01:51:05;;;;;;;4.30;1.73;;;2.10;99.90;;;;;;5095064;28;20224;-82
2024/01/13 01:53:32;;;;;;;11.40;2.27;;;2.00;99.90;;;;;;5102548;28;20221;-82
2024/01/13 01:56:03;;;;;;;11.67;2.83;;;2.10;99.90;;;;;;5096971;28;20241;-82
2024/01/13 01:58:30;;;;;;;6.47;2.53;;;2.10;99.90;;;;;;5093977;28;20291;-82
2024/01/13 02:00:58;;;;;;;6.43;2.40;;;2.10;99.90;;;;;;5093007;28;20222;-81
2024/01/13 02:03:24;;;;;;;8.03;2.60;;;2.10;99.90;;;;;;5095301;27;20230;-81
2024/01/13 02:05:51;;;;;;;9.30;3.23;;;2.10;99.90;;;;;;5096079;28;20222;-81
2024/01/13 02:08:21;;;;;;;52.10;5.23;;;2.10;99.90;;;;;;5094503;28;20289;-82
2024/01/13 02:10:49;;;;;;;12.50;3.43;;;2.10;99.90;;;;;;5103651;28;20226;-81
2024/01/13 02:13:16;;;;;;;6.13;3.20;;;2.10;99.90;;;;;;5092996;28;20223;-81
2024/01/13 02:15:43;;;;;;;13.00;3.83;;;2.10;99.90;;;;;;5120940;27;20293;-81
2024/01/13 02:18:10;;;;;;;6.90;3.23;;;2.10;99.90;;;;;;5092952;28;20227;-81
2024/01/13 02:20:37;;;;;;;6.17;3.30;;;2.10;99.90;;;;;;5094242;28;20252;-81
2024/01/13 02:23:06;;;;;;;33.03;4.73;;;2.10;99.90;;;;;;5092333;28;20234;-81
2024/01/13 02:25:33;;;;;;;8.90;3.07;;;2.10;99.90;;;;;;5100281;28;20223;-81
2024/01/13 02:28:00;;;;;;;7.10;3.10;;;2.20;99.90;;;;;;5101015;28;20222;-81
2024/01/13 02:30:27;;;;;;;4.60;2.73;;;2.20;99.90;;;;;;5092267;28;20219;-81
2024/01/13 02:32:54;;;;;;;4.90;2.63;;;2.20;99.90;;;;;;5094009;28;20227;-81
2024/01/13 02:35:21;;;;;;;9.00;3.40;;;2.20;99.90;;;;;;5127636;27;20272;-81
2024/01/13 02:37:48;;;;;;;5.63;3.07;;;2.20;99.90;;;;;;5098407;28;20225;-81
2024/01/13 02:40:17;;;;;;;10.77;2.93;;;2.20;99.90;;;;;;5090619;28;20238;-80
2024/01/13 02:42:44;;;;;;;25.00;3.77;;;2.20;99.90;;;;;;5091747;28;20252;-81
2024/01/13 02:45:11;;;;;;;6.40;2.37;;;2.20;99.90;;;;;;5091428;28;20771;-81
2024/01/13 02:47:44;;;;;;;23.77;3.20;;;2.20;99.90;;;;;;5078088;28;20305;-83
2024/01/13 02:50:11;;;;;;;10.17;2.50;;;2.20;99.90;;;;;;5076960;28;20223;-83
2024/01/13 02:52:39;;;;;;;46.47;4.33;;;2.20;99.90;;;;;;5088617;28;20231;-82
2024/01/13 02:55:07;;;;;;;2.87;1.87;;;2.20;99.90;;;;;;5080259;28;20261;-83
2024/01/13 02:57:35;;;;;;;10.63;2.20;;;2.20;99.90;;;;;;5076706;28;20230;-83
2024/01/13 03:00:04;;;;;;;5.50;2.20;;;2.20;99.90;;;;;;5076299;27;20689;-83
2024/01/13 03:02:30;;;;;;;4.50;2.40;;;2.20;99.90;;;;;;5085978;28;20271;-82
2024/01/13 03:04:57;;;;;;;5.00;2.23;;;2.20;99.90;;;;;;5068558;28;20637;-83
2024/01/13 03:07:26;;;;;;;6.67;2.50;;;2.20;99.90;;;;;;5081635;28;20749;-83
2024/01/13 03:09:53;;;;;;;5.10;1.90;;;2.20;99.90;;;;;;5080544;28;20272;-83
2024/01/13 03:12:20;;;;;;;8.23;2.40;;;2.20;99.90;;;;;;5092432;28;20227;-83
2024/01/13 03:14:48;;;;;;;15.50;2.90;;;2.20;99.90;;;;;;5091517;28;20239;-83
2024/01/13 03:17:15;;;;;;;3.27;2.43;;;2.20;99.90;;;;;;5085805;28;20228;-83
2024/01/13 03:19:42;;;;;;;3.43;2.43;;;2.20;99.90;;;;;;5076138;28;20230;-84
2024/01/13 03:22:09;;;;;;;35.63;3.90;;;2.20;99.90;;;;;;5078844;27;20221;-83
2024/01/13 03:24:36;;;;;;;10.40;2.60;;;2.20;99.90;;;;;;5084084;28;20649;-84
2024/01/13 03:27:04;;;;;;;5.20;2.13;;;2.20;99.90;;;;;;5080365;28;20215;-84
2024/01/13 03:29:31;;;;;;;4.77;2.13;;;2.20;99.90;;;;;;5080679;28;20238;-83
2024/01/13 03:31:59;;;;;;;3.10;2.33;;;2.20;99.90;;;;;;5089933;28;20229;-83
2024/01/13 03:34:27;;;;;;;5.90;2.60;;;2.20;99.90;;;;;;5077642;28;20741;-84
2024/01/13 03:36:55;;;;;;;22.10;3.77;;;2.20;99.90;;;;;;5080412;28;20783;-83
2024/01/13 03:39:22;;;;;;;4.10;2.40;;;2.20;99.90;;;;;;5081022;27;20224;-83
2024/01/13 03:41:49;;;;;;;8.90;3.10;;;2.30;99.90;;;;;;5076787;28;20222;-83
2024/01/13 03:44:16;;;;;;;17.57;3.67;;;2.20;99.90;;;;;;5071924;27;20229;-83
2024/01/13 03:46:43;;;;;;;12.70;2.70;;;2.30;99.90;;;;;;5077856;27;20908;-84
2024/01/13 03:49:11;;;;;;;5.97;2.50;;;2.30;99.90;;;;;;5074587;28;20656;-83
2024/01/13 03:51:38;;;;;;;9.27;3.27;;;2.30;99.90;;;;;;5076697;28;20230;-83
2024/01/13 03:54:05;;;;;;;19.07;4.20;;;2.30;99.90;;;;;;5084642;28;20219;-83
2024/01/13 03:56:32;;;;;;;16.53;3.13;;;2.30;99.90;;;;;;5071344;28;20227;-83
2024/01/13 03:58:58;;;;;;;89.03;7.87;;;2.30;99.90;;;;;;5078592;28;20302;-83
2024/01/13 04:01:25;;;;;;;25.80;3.83;;;2.30;99.90;;;;;;5078700;28;20232;-83
2024/01/13 04:03:52;;;;;;;31.30;4.73;;;2.30;99.90;;;;;;5078965;28;20219;-83
2024/01/13 04:06:20;;;;;;;3.80;2.67;;;2.30;99.90;;;;;;5078730;27;20319;-83
2024/01/13 04:08:47;;;;;;;19.63;3.50;;;2.30;99.90;;;;;;5096536;28;20297;-84
2024/01/13 04:11:14;;;;;;;12.30;3.50;;;2.30;99.90;;;;;;5077181;27;20246;-83
2024/01/13 04:13:41;;;;;;;7.03;2.90;;;2.30;99.90;;;;;;5085614;28;20304;-84
2024/01/13 04:16:08;;;;;;;5.73;3.37;;;2.30;99.90;;;;;;5079131;28;20238;-84
2024/01/13 04:18:35;;;;;;;13.13;3.33;;;2.30;99.90;;;;;;5082857;28;20642;-82
2024/01/13 04:21:02;;;;;;;13.60;3.83;;;2.30;99.90;;;;;;5077522;28;20241;-83
2024/01/13 04:23:30;;;;;;;30.63;4.23;;;2.30;99.90;;;;;;5125830;27;20219;-83
2024/01/13 04:25:57;;;;;;;19.13;3.80;;;2.30;99.90;;;;;;5112165;27;20226;-84
2024/01/13 04:28:24;;;;;;;98.23;8.40;;;2.30;99.90;;;;;;5093014;28;20218;-83
2024/01/13 04:30:50;;;;;;;6.93;3.33;;;2.30;99.90;;;;;;5098559;28;20213;-83
2024/01/13 04:33:17;;;;;;;9.50;3.97;;;2.30;99.90;;;;;;5081719;27;20322;-83
2024/01/13 04:35:44;;;;;;;5.27;3.20;;;2.30;99.90;;;;;;5078124;27;20225;-83
2024/01/13 04:38:11;;;;;;;12.43;4.10;;;2.20;99.90;;;;;;5080984;27;20223;-83
2024/01/13 04:40:39;;;;;;;5.90;3.53;;;2.20;99.90;;;;;;5111940;27;20968;-83
2024/01/13 04:43:06;;;;;;;20.70;4.80;;;2.20;99.90;;;;;;5097554;28;20232;-83
2024/01/13 04:45:32;;;;;;;8.53;4.00;;;2.30;99.90;;;;;;5093169;28;20230;-83
2024/01/13 04:48:01;;;;;;;6.77;3.73;;;2.20;99.90;;;;;;5082675;28;20223;-83
2024/01/13 04:50:28;;;;;;;10.57;4.37;;;2.20;99.90;;;;;;5087038;27;20225;-82
2024/01/13 04:52:55;;;;;;;6.47;3.83;;;2.30;99.90;;;;;;5095786;28;20224;-83
2024/01/13 04:55:21;;;;;;;8.77;3.83;;;2.20;99.90;;;;;;5074788;27;20593;-82
2024/01/13 04:57:50;;;;;;;10.07;3.80;;;2.20;99.90;;;;;;5083339;28;20232;-82
2024/01/13 05:00:17;;;;;;;7.53;3.87;;;2.20;99.90;;;;;;5110494;27;20698;-82
2024/01/13 05:02:44;;;;;;;11.13;3.73;;;2.20;99.90;;;;;;5079971;28;20316;-82
2024/01/13 05:05:11;;;;;;;5.60;3.63;;;2.20;99.90;;;;;;5076496;28;20227;-83
2024/01/13 05:07:38;;;;;;;12.80;4.80;;;2.20;99.90;;;;;;5071406;28;20281;-82
2024/01/13 05:10:07;;;;;;;41.47;6.23;;;2.20;99.90;;;;;;5079419;27;20704;-82
2024/01/13 05:12:33;;;;;;;4.57;2.80;;;2.20;99.90;;;;;;5074949;28;20231;-82
2024/01/13 05:15:02;;;;;;;7.50;3.20;;;2.20;99.90;;;;;;5082340;28;20238;-82
2024/01/13 05:17:28;;;;;;;3.73;2.80;;;2.20;99.90;;;;;;5088373;28;20305;-83
2024/01/13 05:19:55;;;;;;;4.57;2.53;;;2.20;99.90;;;;;;5089882;28;20817;-83
2024/01/13 05:22:22;;;;;;;4.77;2.60;;;2.20;99.90;;;;;;5072123;28;20215;-83
2024/01/13 05:24:48;;;;;;;4.83;2.30;;;2.20;99.90;;;;;;5084563;28;20247;-83
2024/01/13 05:27:15;;;;;;;65.67;5.70;;;2.20;99.90;;;;;;5087368;27;20246;-83
2024/01/13 05:29:43;;;;;;;7.63;2.80;;;2.20;99.90;;;;;;5079547;28;20219;-83
2024/01/13 05:32:11;;;;;;;13.50;2.87;;;2.20;99.90;;;;;;5077371;28;20949;-83
2024/01/13 05:34:39;;;;;;;11.77;3.40;;;2.20;99.90;;;;;;5105498;28;20218;-83
2024/01/13 05:37:06;;;;;;;4.70;2.70;;;2.20;99.90;;;;;;5101157;28;20230;-82
2024/01/13 05:39:33;;;;;;;6.03;2.83;;;2.20;99.90;;;;;;5098537;28;20231;-82
2024/01/13 05:41:59;;;;;;;11.27;3.13;;;2.20;99.90;;;;;;5095269;28;20246;-82
2024/01/13 05:44:26;;;;;;;3.73;2.57;;;2.20;99.90;;;;;;5087583;28;21003;-83
2024/01/13 05:46:53;;;;;;;6.23;3.00;;;2.20;99.90;;;;;;5076062;28;20223;-83
2024/01/13 05:49:21;;;;;;;7.67;3.10;;;2.20;99.90;;;;;;5085762;28;20264;-84
2024/01/13 05:51:48;;;;;;;9.63;3.23;;;2.20;99.90;;;;;;5087582;28;20368;-84
2024/01/13 05:54:14;;;;;;;17.60;3.73;;;2.20;99.90;;;;;;5102124;27;20309;-84
2024/01/13 05:56:41;;;;;;;4.53;3.23;;;2.20;99.90;;;;;;5084618;28;20270;-83
2024/01/13 05:59:08;;;;;;;7.77;3.40;;;2.20;99.90;;;;;;5128346;27;20240;-84
2024/01/13 06:01:35;;;;;;;7.40;3.77;;;2.20;99.90;;;;;;5106714;28;20628;-86
2024/01/13 06:04:01;;;;;;;16.03;4.07;;;2.20;99.90;;;;;;5104403;28;20263;-85
2024/01/13 06:06:29;;;;;;;14.80;3.77;;;2.20;99.90;;;;;;5078689;28;20238;-86
2024/01/13 06:08:56;;;;;;;56.87;6.33;;;2.20;99.90;;;;;;5103048;27;20773;-84
2024/01/13 06:11:23;;;;;;;5.33;3.50;;;2.20;99.90;;;;;;5103950;28;20257;-82
2024/01/13 06:13:50;;;;;;;3.97;2.90;;;2.20;99.90;;;;;;5104626;28;20309;-81
2024/01/13 06:16:17;;;;;;;4.63;3.03;;;2.20;99.90;;;;;;5103916;28;20231;-84
2024/01/13 06:18:44;;;;;;;5.93;3.50;;;2.20;99.90;;;;;;5105448;28;20225;-83
2024/01/13 06:21:11;;;;;;;9.17;3.60;;;2.20;99.90;;;;;;5103993;28;20254;-83
2024/01/13 06:23:39;;;;;;;4.70;3.60;;;2.20;99.90;;;;;;5106687;27;20241;-83
2024/01/13 06:26:06;;;;;;;16.27;4.10;;;2.20;99.90;;;;;;5104113;28;20314;-85
2024/01/13 06:28:33;;;;;;;25.10;4.70;;;2.20;99.90;;;;;;5105015;28;20253;-84
2024/01/13 06:30:59;;;;;;;5.83;3.97;;;2.20;99.90;;;;;;5104698;28;20974;-84
2024/01/13 06:33:26;;;;;;;6.20;4.10;;;2.10;99.90;;;;;;5096177;28;20265;-85
2024/01/13 06:35:53;;;;;;;26.27;5.27;;;2.20;99.90;;;;;;5104936;28;20304;-84
2024/01/13 06:38:19;;;;;;;8.43;4.40;;;2.20;99.90;;;;;;5104503;28;20306;-83
2024/01/13 06:40:48;;;;;;;8.53;4.27;;;2.20;99.90;;;;;;5101015;28;20248;-82
2024/01/13 06:43:14;;;;;;;7.53;4.23;;;2.20;99.90;;;;;;5104119;28;20854;-83
2024/01/13 06:45:41;;;;;;;15.20;5.23;;;2.20;99.90;;;;;;5099750;28;20252;-82
2024/01/13 06:48:08;;;;;;;13.17;4.43;;;2.20;99.90;;;;;;5081313;27;20287;-80
2024/01/13 06:50:35;;;;;;;5.47;3.67;;;2.20;99.90;;;;;;5082516;28;20231;-80
2024/01/13 06:53:01;;;;;;;11.00;4.40;;;2.20;99.90;;;;;;5086249;28;20224;-80
2024/01/13 06:55:28;;;;;;;5.63;3.60;;;2.20;99.90;;;;;;5081026;28;20220;-80
2024/01/13 06:57:56;;;;;;;6.73;3.80;;;2.20;99.90;;;;;;5090723;28;20235;-80
2024/01/13 07:00:23;;;;;;;8.70;4.30;;;2.20;99.90;;;;;;5074322;28;20927;-80
2024/01/13 07:02:49;;;;;;;5.30;3.77;;;2.20;99.90;;;;;;5055598;28;20347;-81
2024/01/13 07:05:16;;;;;;;17.87;4.77;;;2.20;99.90;;;;;;5080755;28;20223;-81
2024/01/13 07:07:43;;;;;;;7.27;4.30;;;2.20;99.90;;;;;;5084172;28;20733;-81
2024/01/13 07:10:10;;;;;;;14.37;5.10;;;2.20;99.90;;;;;;5078417;28;20313;-81
2024/01/13 07:12:37;;;;;;;7.40;4.60;;;2.10;99.90;;;;;;5073218;28;20241;-82
2024/01/13 07:15:06;;;;;;;8.77;4.97;;;2.20;99.90;;;;;;5103499;27;20579;-82
2024/01/13 07:17:33;;;;;;;9.37;5.10;;;2.10;99.90;;;;;;5078199;28;20751;-82
2024/01/13 07:20:00;;;;;;;8.90;5.10;;;2.10;99.90;;;;;;5073780;28;20681;-82
2024/01/13 07:22:27;;;;;;;8.50;4.87;;;2.10;99.90;;;;;;5098595;28;20230;-83
2024/01/13 07:24:55;;;;;;;9.03;5.40;;;2.10;99.90;;;;;;5092922;28;20251;-80
2024/01/13 07:27:21;;;;;;;8.13;4.47;;;2.10;99.90;;;;;;5093322;28;20292;-81
2024/01/13 07:29:49;;;;;;;7.17;4.60;;;2.10;99.90;;;;;;5117404;27;21035;-81
2024/01/13 07:32:17;;;;;;;6.57;4.77;;;2.10;99.90;;;;;;5085834;27;20223;-81
2024/01/13 07:34:44;;;;;;;7.97;4.53;;;2.10;99.90;;;;;;5076940;28;20590;-81
2024/01/13 07:37:11;;;;;;;23.03;5.70;;;2.10;99.90;;;;;;5087698;27;20348;-82
2024/01/13 07:39:37;;;;;;;4.93;3.73;;;2.10;99.90;;;;;;5089869;28;20318;-82
2024/01/13 07:42:05;;;;;;;9.37;4.17;;;2.10;99.90;;;;;;5077275;28;20253;-82
2024/01/13 07:44:32;;;;;;;15.83;4.23;;;2.10;99.90;;;;;;5082190;28;20269;-82
2024/01/13 07:47:01;;;;;;;8.20;3.80;;;2.10;99.90;;;;;;5079805;28;20236;-82
2024/01/13 07:49:29;;;;;;;4.27;3.20;;;2.10;99.90;;;;;;5116472;27;20230;-83
2024/01/13 07:51:56;;;;;;;7.27;3.40;;;2.10;99.90;;;;;;5083724;28;20256;-82
2024/01/13 07:54:23;;;;;;;4.70;3.00;;;2.10;99.90;;;;;;5106413;27;21006;-82
2024/01/13 07:56:50;;;;;;;15.47;3.67;;;2.10;99.90;;;;;;5085846;27;20508;-83
2024/01/13 07:59:17;;;;;;;4.23;3.17;;;2.10;99.90;;;;;;5091008;28;20220;-81
2024/01/13 08:01:44;;;;;;;3.67;2.90;;;2.10;99.90;;;;;;5083344;28;20793;-83
2024/01/13 08:04:12;;;;;;;3.80;2.47;;;2.10;99.90;;;;;;5093180;28;20229;-83
2024/01/13 08:06:40;;;;;;;3.40;2.50;;;2.10;99.90;;;;;;5084134;28;20278;-82
2024/01/13 08:09:07;;;;;;;38.80;4.57;;;2.20;99.90;;;;;;5112313;27;20227;-83
2024/01/13 08:11:34;;;;;;;4.77;2.30;;;2.10;99.90;;;;;;5087230;28;20698;-83
2024/01/13 08:14:01;;;;;;;2.40;1.73;;;2.20;99.90;;;;;;5076016;28;20257;-82
2024/01/13 08:16:29;;;;;;;4.83;1.87;;;2.20;99.90;;;;;;5066677;28;20314;-83
2024/01/13 08:18:56;;;;;;;2.90;1.93;;;2.20;99.90;;;;;;5082666;28;20739;-83
2024/01/13 08:21:22;;;;;;;3.47;1.80;;;2.20;99.90;;;;;;5074449;28;20346;-83
2024/01/13 08:23:50;;;;;;;2.07;1.77;;;2.20;99.90;;;;;;5070735;28;20246;-83
2024/01/13 08:26:17;;;;;;;31.87;3.83;;;2.20;99.90;;;;;;5073600;28;20306;-82
2024/01/13 08:28:44;;;;;;;19.57;2.97;;;2.20;99.90;;;;;;5070375;28;20240;-84
2024/01/13 08:31:10;;;;;;;30.30;3.53;;;2.20;99.90;;;;;;5105532;27;20311;-83
2024/01/13 08:33:38;;;;;;;9.03;2.23;;;2.20;99.90;;;;;;5102671;27;20650;-83
2024/01/13 08:36:05;;;;;;;32.73;4.00;;;2.20;99.90;;;;;;5081715;27;20264;-83
2024/01/13 08:38:32;;;;;;;43.30;5.03;;;2.20;99.90;;;;;;5124702;27;20439;-83
2024/01/13 08:41:00;;;;;;;20.33;2.63;;;2.20;99.90;;;;;;5118126;27;20234;-84
2024/01/13 08:43:27;;;;;;;17.00;2.97;;;2.20;99.90;;;;;;5075106;28;20603;-84
2024/01/13 08:45:53;;;;;;;6.73;2.10;;;2.20;99.90;;;;;;5085143;27;20330;-84
2024/01/13 08:48:20;;;;;;;10.70;2.53;;;2.20;99.90;;;;;;5091008;27;20768;-83
2024/01/13 08:50:47;;;;;;;11.83;2.20;;;2.20;99.90;;;;;;5074076;27;20321;-84
2024/01/13 08:53:13;;;;;;;10.83;2.70;;;2.30;99.90;;;;;;5082569;27;20247;-83
2024/01/13 08:55:40;;;;;;;6.30;2.37;;;2.30;99.90;;;;;;5114975;27;20523;-84
2024/01/13 08:58:08;;;;;;;16.50;2.97;;;2.30;99.90;;;;;;5079750;28;21779;-84
2024/01/13 09:00:37;;;;;;;66.53;6.17;;;2.30;99.90;;;;;;5085653;27;20242;-83
2024/01/13 09:03:04;;;;;;;4.33;2.00;;;2.30;99.90;;;;;;5085921;27;20827;-85
2024/01/13 09:05:31;;;;;;;5.63;2.40;;;2.40;99.90;;;;;;5084435;28;20241;-84
2024/01/13 09:07:59;;;;;;;7.73;2.43;;;2.40;99.90;;;;;;5080858;28;20248;-84
2024/01/13 09:10:26;;;;;;;27.83;3.83;;;2.40;99.90;;;;;;5078785;27;20227;-84
2024/01/13 09:12:53;;;;;;;5.73;2.20;;;2.40;99.90;;;;;;5080746;28;20371;-84
2024/01/13 09:15:20;;;;;;;3.40;2.20;;;2.40;99.90;;;;;;5114203;27;20233;-84
2024/01/13 09:17:46;;;;;;;72.63;5.40;;;2.40;99.90;;;;;;5082424;28;20223;-84
2024/01/13 09:20:13;;;;;;;5.27;2.23;;;2.50;99.90;;;;;;5120755;27;20338;-84
2024/01/13 09:22:41;;;;;;;11.27;2.60;;;2.50;99.90;;;;;;5092480;27;20307;-84
2024/01/13 09:25:08;;;;;;;3.03;2.00;;;2.50;99.90;;;;;;5076637;28;20617;-85
2024/01/13 09:27:35;;;;;;;6.77;2.17;;;2.60;99.90;;;;;;5084029;27;20311;-85
2024/01/13 09:30:02;;;;;;;12.33;2.83;;;2.60;99.90;;;;;;5051136;28;20219;-84
2024/01/13 09:32:30;;;;;;;4.10;2.83;;;2.60;99.90;;;;;;5077489;27;20242;-85
2024/01/13 09:34:57;;;;;;;2.43;1.97;;;2.70;99.90;;;;;;5082023;28;20248;-85
2024/01/13 09:37:24;;;;;;;3.30;1.87;;;2.70;99.90;;;;;;5093833;27;20227;-86
2024/01/13 09:39:51;;;;;;;8.80;2.20;;;2.70;99.90;;;;;;5087625;28;20286;-85
2024/01/13 09:42:28;;;;;;;6.10;1.83;;;2.70;99.90;;;;;;5086875;28;20227;-84
2024/01/13 09:44:54;;;;;;;2.50;1.80;;;2.80;99.90;;;;;;5122667;27;20219;-85
2024/01/13 09:47:22;;;;;;;3.43;2.07;;;2.70;99.90;;;;;;5088919;28;20509;-85
2024/01/13 09:49:51;;;;;;;2.43;1.70;;;2.80;99.90;;;;;;5106765;27;20303;-83
2024/01/13 09:52:19;;;;;;;7.13;1.93;;;2.70;99.90;;;;;;5094445;28;20231;-87
2024/01/13 09:54:50;;;;;;;5.07;2.23;;;2.70;99.90;;;;;;5085782;28;20278;-85
2024/01/13 09:57:19;;;;;;;7.03;2.00;;;2.70;99.90;;;;;;5111951;27;20219;-86
2024/01/13 09:59:47;;;;;;;3.70;1.90;;;2.70;99.90;;;;;;5086530;28;20225;-88
2024/01/13 10:02:14;;;;;;;5.60;1.93;;;2.70;99.90;;;;;;5074668;27;21062;-85
2024/01/13 10:04:40;;;;;;;2.20;1.97;;;2.70;99.90;;;;;;5076408;27;20216;-86
2024/01/13 10:07:09;;;;;;;4.03;2.00;;;2.70;99.90;;;;;;5094946;27;20650;-87
2024/01/13 10:09:37;;;;;;;4.77;1.70;;;2.70;99.90;;;;;;5093667;28;20310;-85
2024/01/13 10:12:06;;;;;;;2.70;1.60;;;2.80;99.90;;;;;;5080260;28;20244;-86
2024/01/13 10:14:35;;;;;;;3.07;1.73;;;2.70;99.90;;;;;;5100126;28;20230;-87
2024/01/13 10:17:03;;;;;;;3.53;1.40;;;2.70;99.90;;;;;;5101976;28;20464;-86
2024/01/13 10:19:30;;;;;;;2.27;1.40;;;2.70;99.90;;;;;;5076317;28;20217;-87
2024/01/13 10:21:57;;;;;;;1.93;1.70;;;2.70;99.90;;;;;;5073750;28;20265;-89
2024/01/13 10:24:25;;;;;;;2.60;1.70;;;2.70;99.90;;;;;;5078883;27;20729;-88
2024/01/13 10:26:52;;;;;;;2.60;1.47;;;2.70;99.90;;;;;;5097826;28;20933;-87
2024/01/13 10:29:19;;;;;;;51.17;5.10;;;2.80;99.90;;;;;;5119025;27;20918;-88
2024/01/13 10:31:50;;;;;;;5.70;1.90;;;2.80;99.90;;;;;;5081922;28;20238;-86
2024/01/13 10:34:18;;;;;;;112.37;7.73;;;2.80;99.90;;;;;;5085725;28;20799;-90
2024/01/13 10:36:45;;;;;;;2.13;1.33;;;2.80;99.90;;;;;;5111074;27;20230;-87
2024/01/13 10:39:12;;;;;;;1.50;1.40;;;2.80;99.90;;;;;;5098122;28;21078;-85
2024/01/13 10:41:44;;;;;;;2.23;1.50;;;2.80;99.90;;;;;;5083175;28;20319;-84
2024/01/13 10:44:13;;;;;;;3.73;2.10;;;2.80;99.90;;;;;;5095452;28;20214;-85
2024/01/13 10:46:45;;;;;;;2.67;1.50;;;2.80;99.90;;;;;;5078408;28;21039;-84
2024/01/13 10:49:17;;;;;;;2.90;1.80;;;2.90;99.90;;;;;;5111843;27;20693;-84
2024/01/13 10:51:51;;;;;;;4.63;2.60;;;2.90;99.90;;;;;;5099242;27;20294;-86
2024/01/13 10:54:19;;;;;;;6.40;2.27;;;2.90;99.90;;;;;;5099130;27;21177;-86
2024/01/13 10:56:49;;;;;;;2.20;1.90;;;2.90;99.90;;;;;;5087099;27;20305;-84
2024/01/13 10:59:17;;;;;;;2.20;2.00;;;2.90;99.90;;;;;;5074398;28;20277;-84
2024/01/13 11:01:46;;;;;;;2.20;2.00;;;3.00;99.90;;;;;;5083132;28;20509;-84
2024/01/13 11:04:13;;;;;;;13.80;2.97;;;3.00;99.90;;;;;;5110567;27;20223;-84
2024/01/13 11:06:41;;;;;;;5.87;3.33;;;3.00;99.90;;;;;;5079416;28;20222;-86
2024/01/13 11:09:10;;;;;;;3.83;2.53;;;3.00;99.90;;;;;;5077374;28;20250;-85
2024/01/13 11:11:41;;;;;;;3.80;2.60;;;3.00;99.90;;;;;;5080653;28;20279;-84
2024/01/13 11:14:14;;;;;;;2.57;2.30;;;3.00;99.90;;;;;;5083283;28;20236;-85
2024/01/13 11:16:44;;;;;;;3.90;2.40;;;3.00;99.90;;;;;;5075560;28;20284;-85
2024/01/13 11:19:12;;;;;;;3.80;2.20;;;3.10;99.90;;;;;;5079705;27;20318;-85
2024/01/13 11:21:41;;;;;;;7.83;2.80;;;3.10;99.90;;;;;;5079750;27;20223;-85
2024/01/13 11:24:13;;;;;;;5.23;2.27;;;3.10;99.90;;;;;;5085389;28;20218;-84
2024/01/13 11:26:43;;;;;;;4.03;1.97;;;3.10;99.90;;;;;;5071148;28;20224;-85
2024/01/13 11:29:18;;;;;;;1.80;1.60;;;3.20;99.90;;;;;;5071118;28;20221;-84
2024/01/13 11:31:45;;;;;;;1.97;1.70;;;3.20;99.90;;;;;;5112303;27;20223;-85
2024/01/13 11:34:14;;;;;;;3.87;1.53;;;3.20;99.90;;;;;;5109902;27;20232;-85
2024/01/13 11:36:42;;;;;;;2.93;1.57;;;3.20;99.90;;;;;;5079074;28;20312;-84
2024/01/13 11:39:10;;;;;;;1.83;1.47;;;3.20;99.90;;;;;;5078128;28;20315;-86
2024/01/13 11:41:41;;;;;;;2.40;1.57;;;3.20;99.90;;;;;;5085979;28;20325;-86
2024/01/13 11:44:09;;;;;;;4.13;1.77;;;3.20;99.90;;;;;;5076935;27;20253;-86
2024/01/13 11:46:56;;;;;;;4.10;1.77;;;3.20;99.90;;;;;;5084446;28;20254;-87
2024/01/13 11:49:30;;;;;;;3.33;1.90;;;3.20;99.90;;;;;;5073846;28;20227;-86
2024/01/13 11:52:01;;;;;;;2.17;1.70;;;3.20;99.90;;;;;;5073624;28;20221;-84
2024/01/13 11:54:28;;;;;;;3.50;1.80;;;3.20;99.90;;;;;;5103774;27;20259;-85
2024/01/13 11:56:58;;;;;;;2.87;1.80;;;3.20;99.90;;;;;;5074152;28;20248;-85
2024/01/13 11:59:25;;;;;;;2.10;1.73;;;3.20;99.90;;;;;;5076575;28;20263;-88
2024/01/13 12:01:55;;;;;;;2.77;2.00;;;3.20;99.90;;;;;;5087423;28;20222;-86
2024/01/13 12:04:25;;;;;;;3.47;2.10;;;3.20;99.90;;;;;;5102828;27;20309;-83
2024/01/13 12:06:53;;;;;;;4.70;2.20;;;3.20;99.90;;;;;;5090735;28;20300;-85
2024/01/13 12:09:22;;;;;;;4.37;2.33;;;3.20;99.90;;;;;;5097226;28;20771;-83
2024/01/13 12:11:53;;;;;;;5.77;2.30;;;3.20;99.90;;;;;;5100981;28;20219;-84
2024/01/13 12:14:25;;;;;;;3.30;2.10;;;3.20;99.90;;;;;;5080802;28;20720;-84
2024/01/13 12:16:54;;;;;;;4.03;2.10;;;3.20;99.90;;;;;;5120678;27;20246;-86
2024/01/13 12:19:21;;;;;;;4.43;2.13;;;3.20;99.90;;;;;;5083695;28;20234;-82
2024/01/13 12:21:48;;;;;;;4.93;2.20;;;3.30;99.90;;;;;;5089844;28;20303;-83
2024/01/13 12:24:15;;;;;;;8.70;2.80;;;3.30;99.90;;;;;;5080686;28;20330;-83
2024/01/13 12:26:42;;;;;;;3.50;2.20;;;3.30;99.90;;;;;;5081561;28;20878;-83
2024/01/13 12:29:09;;;;;;;5.47;2.73;;;3.30;99.90;;;;;;5078828;27;20329;-85
2024/01/13 12:31:36;;;;;;;3.93;2.40;;;3.30;99.90;;;;;;5090924;28;20420;-82
2024/01/13 12:34:11;;;;;;;6.47;2.67;;;3.30;99.90;;;;;;5083209;28;20323;-87
2024/01/13 12:36:39;;;;;;;4.53;2.50;;;3.30;99.90;;;;;;5074080;28;20219;-88
2024/01/13 12:39:07;;;;;;;3.70;2.67;;;3.30;99.90;;;;;;5110991;27;20322;-87
2024/01/13 12:41:34;;;;;;;5.57;3.10;;;3.40;99.90;;;;;;5084163;28;20229;-85
2024/01/13 12:44:05;;;;;;;5.03;2.80;;;3.40;99.90;;;;;;5127735;27;20228;-85
2024/01/13 12:46:35;;;;;;;4.00;3.20;;;3.40;99.90;;;;;;5071370;28;20780;-83
2024/01/13 12:49:12;;;;;;;3.90;2.87;;;3.40;99.90;;;;;;5071774;28;20262;-85
2024/01/13 12:51:42;;;;;;;4.67;3.43;;;3.40;99.90;;;;;;5080585;28;20886;-85
2024/01/13 12:54:09;;;;;;;4.53;3.47;;;3.40;99.90;;;;;;5102064;28;20216;-84
2024/01/13 12:56:36;;;;;;;5.57;3.90;;;3.40;99.90;;;;;;5102841;27;21113;-85